Time;durP1;ratioP1;P1;durP2;ratioP2;P2;SDS_P1;SDS_P2;PMS_P1;PMS_P2;Temp;Humidity;BMP_temperature;BMP_pressure;BME280_temperature;BME280_humidity;BME280_pressure;Samples;Min_cycle;Max_cycle;Signal;HPM_P1;HPM_P2
2021/05/17 00:02:20;;;;;;;2.03;0.52;;;;;;;;;;5029069;28;20095;-84
2021/05/17 00:04:49;;;;;;;1.23;0.30;;;;;;;;;;5030741;28;20378;-84
2021/05/17 00:07:17;;;;;;;0.63;0.30;;;;;;;;;;5030534;28;20051;-86
2021/05/17 00:09:45;;;;;;;0.85;0.30;;;;;;;;;;5030020;28;20076;-83
2021/05/17 00:12:14;;;;;;;0.43;0.35;;;;;;;;;;5015060;28;20168;-85
2021/05/17 00:14:42;;;;;;;0.20;0.10;;;;;;;;;;5024634;28;20045;-85
2021/05/17 00:17:10;;;;;;;0.20;0.20;;;;;;;;;;5034713;28;20107;-85
2021/05/17 00:19:38;;;;;;;0.30;0.10;;;;;;;;;;5034768;28;20045;-84
2021/05/17 00:22:07;;;;;;;1.60;0.30;;;;;;;;;;5033450;28;20095;-85
2021/05/17 00:24:35;;;;;;;0.25;0.22;;;;;;;;;;5034814;28;20084;-85
2021/05/17 00:27:03;;;;;;;0.20;0.20;;;;;;;;;;5035041;28;20053;-84
2021/05/17 00:29:32;;;;;;;0.10;0.10;;;;;;;;;;5035482;28;20062;-83
2021/05/17 00:32:01;;;;;;;0.22;0.20;;;;;;;;;;5034558;28;20124;-84
2021/05/17 00:34:28;;;;;;;1.05;0.30;;;;;;;;;;5034077;28;20081;-85
2021/05/17 00:36:56;;;;;;;1.58;0.22;;;;;;;;;;5030461;28;20048;-83
2021/05/17 00:39:25;;;;;;;0.38;0.13;;;;;;;;;;5033998;28;20045;-85
2021/05/17 00:41:53;;;;;;;0.40;0.25;;;;;;;;;;5035051;28;20069;-85
2021/05/17 00:44:21;;;;;;;1.23;0.35;;;;;;;;;;5037450;28;20064;-85
2021/05/17 00:46:52;;;;;;;1.45;0.28;;;;;;;;;;5034418;28;20072;-86
2021/05/17 00:49:20;;;;;;;0.47;0.25;;;;;;;;;;5039290;28;20041;-85
2021/05/17 00:51:47;;;;;;;0.82;0.20;;;;;;;;;;5034365;28;20091;-86
2021/05/17 00:54:16;;;;;;;1.00;0.30;;;;;;;;;;5034059;28;20512;-86
2021/05/17 00:56:44;;;;;;;1.92;0.40;;;;;;;;;;5033312;28;20049;-86
2021/05/17 00:59:12;;;;;;;0.73;0.30;;;;;;;;;;5034216;28;20041;-86
2021/05/17 01:01:40;;;;;;;0.75;0.30;;;;;;;;;;5034505;28;20053;-86
2021/05/17 01:04:08;;;;;;;0.77;0.22;;;;;;;;;;5029997;28;20050;-85
2021/05/17 01:06:36;;;;;;;0.30;0.20;;;;;;;;;;5032454;28;20095;-85
2021/05/17 01:09:05;;;;;;;0.98;0.30;;;;;;;;;;5031883;28;20084;-85
2021/05/17 01:11:34;;;;;;;3.13;0.55;;;;;;;;;;5032909;28;20123;-85
2021/05/17 01:14:03;;;;;;;1.42;0.30;;;;;;;;;;5034383;28;20152;-84
2021/05/17 01:16:31;;;;;;;0.32;0.28;;;;;;;;;;5033837;28;20107;-84
2021/05/17 01:18:59;;;;;;;2.65;0.50;;;;;;;;;;5034482;28;20084;-84
2021/05/17 01:21:33;;;;;;;0.20;0.20;;;;;;;;;;5033781;28;20053;-85
2021/05/17 01:24:02;;;;;;;3.35;0.60;;;;;;;;;;5034352;28;20092;-84
2021/05/17 01:26:32;;;;;;;0.20;0.20;;;;;;;;;;5032409;28;20073;-83
2021/05/17 01:29:01;;;;;;;0.57;0.30;;;;;;;;;;5034189;28;20081;-84
2021/05/17 01:31:29;;;;;;;3.58;0.50;;;;;;;;;;5032352;28;20064;-84
2021/05/17 01:33:57;;;;;;;2.92;0.30;;;;;;;;;;5031159;28;20045;-86
2021/05/17 01:36:25;;;;;;;1.42;0.30;;;;;;;;;;5032776;28;20114;-86
2021/05/17 01:38:54;;;;;;;2.05;0.70;;;;;;;;;;5034132;28;20045;-85
2021/05/17 01:41:24;;;;;;;0.98;0.43;;;;;;;;;;5033096;28;20096;-86
2021/05/17 01:43:54;;;;;;;0.98;0.52;;;;;;;;;;5033242;28;20041;-83
2021/05/17 01:46:22;;;;;;;1.65;0.45;;;;;;;;;;5031727;28;20045;-86
2021/05/17 01:48:50;;;;;;;1.02;0.43;;;;;;;;;;5031946;28;20081;-84
2021/05/17 01:51:20;;;;;;;2.75;0.57;;;;;;;;;;5033684;28;20045;-85
2021/05/17 01:53:48;;;;;;;2.88;0.52;;;;;;;;;;5033564;28;20053;-85
2021/05/17 01:56:17;;;;;;;1.77;0.50;;;;;;;;;;5032146;28;20716;-86
2021/05/17 01:58:46;;;;;;;0.88;0.50;;;;;;;;;;5033916;28;20073;-86
2021/05/17 02:01:15;;;;;;;0.98;0.40;;;;;;;;;;5032362;28;20049;-86
2021/05/17 02:03:43;;;;;;;2.33;0.55;;;;;;;;;;5019693;28;20053;-85
2021/05/17 02:06:12;;;;;;;3.08;0.60;;;;;;;;;;5029265;28;20088;-85
2021/05/17 02:08:41;;;;;;;1.40;0.50;;;;;;;;;;5032967;28;20077;-85
2021/05/17 02:11:10;;;;;;;0.82;0.40;;;;;;;;;;5032787;28;20052;-85
2021/05/17 02:13:38;;;;;;;4.03;0.63;;;;;;;;;;5032094;28;20041;-85
2021/05/17 02:16:08;;;;;;;0.98;0.40;;;;;;;;;;5033121;28;20095;-86
2021/05/17 02:18:37;;;;;;;1.98;0.30;;;;;;;;;;5029943;28;20119;-86
2021/05/17 02:21:06;;;;;;;1.63;0.52;;;;;;;;;;5032914;28;20123;-85
2021/05/17 02:23:34;;;;;;;1.75;0.50;;;;;;;;;;5030307;28;20053;-85
2021/05/17 02:26:03;;;;;;;1.35;0.63;;;;;;;;;;5033540;28;20084;-85
2021/05/17 02:28:31;;;;;;;2.15;0.68;;;;;;;;;;5032547;28;20064;-86
2021/05/17 02:30:59;;;;;;;0.73;0.40;;;;;;;;;;5033435;28;20053;-85
2021/05/17 02:33:28;;;;;;;2.63;0.73;;;;;;;;;;5032108;28;20083;-86
2021/05/17 02:35:57;;;;;;;0.45;0.30;;;;;;;;;;5032869;28;20052;-86
2021/05/17 02:38:25;;;;;;;0.65;0.60;;;;;;;;;;5022950;28;20124;-86
2021/05/17 02:40:53;;;;;;;1.38;0.47;;;;;;;;;;5032644;28;20099;-85
2021/05/17 02:43:22;;;;;;;1.02;0.50;;;;;;;;;;5030834;28;20053;-85
2021/05/17 02:45:50;;;;;;;2.63;0.40;;;;;;;;;;5032242;28;20104;-85
2021/05/17 02:48:18;;;;;;;0.57;0.35;;;;;;;;;;5032171;28;20416;-85
2021/05/17 02:50:48;;;;;;;0.57;0.40;;;;;;;;;;5033535;28;20053;-85
2021/05/17 02:53:26;;;;;;;1.95;0.40;;;;;;;;;;5032123;28;20132;-85
2021/05/17 02:55:54;;;;;;;0.85;0.40;;;;;;;;;;5032091;28;20481;-86
2021/05/17 02:58:23;;;;;;;0.88;0.52;;;;;;;;;;5033034;28;20485;-85
2021/05/17 03:00:53;;;;;;;0.82;0.40;;;;;;;;;;5033712;28;20373;-84
2021/05/17 03:03:24;;;;;;;1.83;0.30;;;;;;;;;;5033218;28;20497;-85
2021/05/17 03:05:57;;;;;;;2.67;0.47;;;;;;;;;;5031493;28;20049;-85
2021/05/17 03:08:28;;;;;;;0.40;0.22;;;;;;;;;;5033053;28;20047;-85
2021/05/17 03:10:57;;;;;;;0.63;0.30;;;;;;;;;;5032705;28;20061;-85
2021/05/17 03:13:26;;;;;;;1.27;0.43;;;;;;;;;;5031349;28;20408;-84
2021/05/17 03:15:55;;;;;;;0.50;0.30;;;;;;;;;;5031665;28;20111;-85
2021/05/17 03:18:23;;;;;;;1.42;0.30;;;;;;;;;;5032279;28;20050;-85
2021/05/17 03:20:51;;;;;;;1.50;0.30;;;;;;;;;;5034065;28;20053;-85
2021/05/17 03:23:20;;;;;;;0.63;0.30;;;;;;;;;;5035355;28;20049;-85
2021/05/17 03:25:48;;;;;;;0.47;0.47;;;;;;;;;;5033555;28;20053;-87
2021/05/17 03:28:16;;;;;;;2.30;0.20;;;;;;;;;;5038626;28;20049;-86
2021/05/17 03:30:44;;;;;;;2.42;0.45;;;;;;;;;;5044169;28;20071;-85
2021/05/17 03:33:12;;;;;;;2.30;0.40;;;;;;;;;;5031683;28;20049;-85
2021/05/17 03:35:40;;;;;;;0.57;0.30;;;;;;;;;;5033195;28;20053;-85
2021/05/17 03:38:08;;;;;;;1.45;0.55;;;;;;;;;;5012882;28;20066;-85
2021/05/17 03:40:37;;;;;;;1.05;0.30;;;;;;;;;;5013134;28;20054;-85
2021/05/17 03:43:04;;;;;;;1.80;0.52;;;;;;;;;;5012930;28;20182;-85
2021/05/17 03:45:32;;;;;;;0.47;0.38;;;;;;;;;;5007274;28;20085;-84
2021/05/17 03:48:00;;;;;;;1.70;0.30;;;;;;;;;;5029223;28;20049;-85
2021/05/17 03:50:28;;;;;;;3.55;0.30;;;;;;;;;;5031518;28;20053;-85
2021/05/17 03:52:56;;;;;;;0.57;0.30;;;;;;;;;;5043021;28;20095;-85
2021/05/17 03:55:24;;;;;;;0.40;0.30;;;;;;;;;;5029273;28;20571;-84
2021/05/17 03:57:55;;;;;;;3.20;0.38;;;;;;;;;;5039537;28;20045;-83
2021/05/17 04:00:24;;;;;;;0.82;0.35;;;;;;;;;;5041751;28;20132;-87
2021/05/17 04:02:51;;;;;;;1.45;0.30;;;;;;;;;;5045655;28;20553;-84
2021/05/17 04:05:30;;;;;;;0.22;0.22;;;;;;;;;;5046961;28;20057;-85
2021/05/17 04:13:34;;;;;;;1.77;0.38;;;;;;;;;;5043285;28;20129;-85
2021/05/17 04:16:02;;;;;;;1.52;0.50;;;;;;;;;;5042667;28;20056;-85
2021/05/17 04:18:30;;;;;;;1.00;0.50;;;;;;;;;;5036062;28;20493;-86
2021/05/17 04:21:00;;;;;;;2.03;0.35;;;;;;;;;;5038156;28;20063;-85
2021/05/17 04:23:29;;;;;;;1.73;0.38;;;;;;;;;;5031624;28;20151;-84
2021/05/17 04:25:57;;;;;;;2.42;0.60;;;;;;;;;;5027974;28;20046;-84
2021/05/17 04:28:24;;;;;;;3.10;0.50;;;;;;;;;;5037802;28;20108;-83
2021/05/17 04:30:55;;;;;;;1.58;0.50;;;;;;;;;;5033145;28;20050;-84
2021/05/17 04:33:22;;;;;;;1.75;0.35;;;;;;;;;;5035130;28;20037;-84
2021/05/17 04:35:50;;;;;;;1.52;0.50;;;;;;;;;;5036392;28;20073;-84
2021/05/17 04:38:18;;;;;;;2.53;0.40;;;;;;;;;;5041455;28;20135;-84
2021/05/17 04:40:47;;;;;;;1.52;0.50;;;;;;;;;;5032069;28;20115;-85
2021/05/17 04:43:16;;;;;;;2.33;0.80;;;;;;;;;;5040621;28;20041;-83
2021/05/17 04:45:43;;;;;;;3.30;0.30;;;;;;;;;;5026677;28;20077;-84
2021/05/17 04:48:12;;;;;;;2.63;0.50;;;;;;;;;;5028365;28;20170;-85
2021/05/17 04:50:40;;;;;;;5.93;0.80;;;;;;;;;;5018436;28;20351;-83
2021/05/17 04:53:08;;;;;;;6.22;0.73;;;;;;;;;;5015091;28;20073;-83
2021/05/17 04:55:36;;;;;;;2.60;0.63;;;;;;;;;;5019407;28;20054;-83
2021/05/17 04:58:04;;;;;;;1.90;0.70;;;;;;;;;;5028005;28;20049;-83
2021/05/17 05:00:32;;;;;;;9.00;0.93;;;;;;;;;;5030190;28;20488;-84
2021/05/17 05:03:00;;;;;;;4.07;0.90;;;;;;;;;;5039631;28;20053;-87
2021/05/17 05:05:29;;;;;;;7.50;0.70;;;;;;;;;;5036497;28;20057;-85
2021/05/17 05:07:57;;;;;;;2.83;0.80;;;;;;;;;;5048537;28;20052;-84
2021/05/17 05:10:25;;;;;;;9.63;1.20;;;;;;;;;;5044212;28;20053;-84
2021/05/17 05:12:53;;;;;;;4.05;0.70;;;;;;;;;;5042407;28;20046;-83
2021/05/17 05:15:21;;;;;;;1.13;0.40;;;;;;;;;;5053401;28;20068;-86
2021/05/17 05:17:49;;;;;;;5.13;0.70;;;;;;;;;;5034463;28;20077;-85
2021/05/17 05:20:17;;;;;;;2.88;0.82;;;;;;;;;;5037084;28;20057;-85
2021/05/17 05:22:46;;;;;;;10.63;1.08;;;;;;;;;;5035804;28;20076;-85
2021/05/17 05:25:15;;;;;;;3.50;0.65;;;;;;;;;;5023642;28;20489;-84
2021/05/17 05:27:45;;;;;;;5.35;0.73;;;;;;;;;;5041668;28;20045;-87
2021/05/17 05:30:21;;;;;;;3.65;0.90;;;;;;;;;;5038663;28;20045;-88
2021/05/17 05:32:52;;;;;;;3.75;1.00;;;;;;;;;;5036401;28;20493;-85
2021/05/17 05:35:20;;;;;;;8.80;1.23;;;;;;;;;;5042199;28;20045;-84
2021/05/17 05:37:49;;;;;;;5.28;0.98;;;;;;;;;;5035932;28;20452;-86
2021/05/17 05:40:17;;;;;;;5.65;1.00;;;;;;;;;;5031352;28;20140;-85
2021/05/17 05:42:45;;;;;;;6.97;0.90;;;;;;;;;;5039061;28;20112;-84
2021/05/17 05:45:14;;;;;;;6.95;0.73;;;;;;;;;;5052496;28;20042;-85
2021/05/17 05:47:42;;;;;;;6.75;1.42;;;;;;;;;;5039043;28;20697;-85
2021/05/17 05:50:10;;;;;;;3.90;0.98;;;;;;;;;;5051770;28;20052;-84
2021/05/17 05:52:39;;;;;;;2.17;0.75;;;;;;;;;;5047629;28;20053;-84
2021/05/17 05:55:08;;;;;;;6.45;1.23;;;;;;;;;;5034516;28;20421;-85
2021/05/17 05:57:41;;;;;;;3.38;0.95;;;;;;;;;;5034122;28;20057;-87
2021/05/17 06:00:10;;;;;;;4.53;0.90;;;;;;;;;;5053694;28;20045;-85
2021/05/17 06:02:38;;;;;;;6.88;1.08;;;;;;;;;;5039573;28;20508;-85
2021/05/17 06:05:07;;;;;;;7.50;1.05;;;;;;;;;;5026667;28;20079;-86
2021/05/17 06:07:35;;;;;;;3.58;0.93;;;;;;;;;;5036707;28;20049;-84
2021/05/17 06:10:05;;;;;;;5.50;1.05;;;;;;;;;;5046337;28;20045;-86
2021/05/17 06:12:34;;;;;;;4.38;1.02;;;;;;;;;;5036189;28;20065;-85
2021/05/17 06:15:04;;;;;;;5.22;0.82;;;;;;;;;;5030091;28;20056;-86
2021/05/17 06:17:32;;;;;;;5.13;1.00;;;;;;;;;;5029388;28;20050;-85
2021/05/17 06:20:00;;;;;;;6.45;0.75;;;;;;;;;;5030433;28;20052;-86
2021/05/17 06:22:29;;;;;;;6.53;0.93;;;;;;;;;;5033770;28;20071;-85
2021/05/17 06:24:58;;;;;;;5.10;1.10;;;;;;;;;;5033548;28;20057;-85
2021/05/17 06:27:26;;;;;;;6.95;1.10;;;;;;;;;;5030845;28;21281;-85
2021/05/17 06:29:58;;;;;;;5.03;1.05;;;;;;;;;;5032403;28;20112;-84
2021/05/17 06:32:26;;;;;;;7.45;1.15;;;;;;;;;;5031237;28;20053;-86
2021/05/17 06:34:54;;;;;;;6.10;1.23;;;;;;;;;;5032265;28;20064;-84
2021/05/17 06:37:22;;;;;;;7.40;0.88;;;;;;;;;;5035595;28;20056;-85
2021/05/17 06:39:51;;;;;;;9.27;1.63;;;;;;;;;;5034311;28;20045;-85
2021/05/17 06:42:19;;;;;;;4.00;1.08;;;;;;;;;;5038874;28;20049;-85
2021/05/17 06:44:51;;;;;;;6.63;1.00;;;;;;;;;;5035091;28;20049;-84
2021/05/17 06:47:21;;;;;;;6.65;1.50;;;;;;;;;;5035241;28;20053;-84
2021/05/17 06:49:49;;;;;;;7.10;1.10;;;;;;;;;;5035244;28;20098;-85
2021/05/17 06:52:22;;;;;;;6.82;1.02;;;;;;;;;;5036559;28;20424;-84
2021/05/17 06:54:57;;;;;;;3.10;0.95;;;;;;;;;;5038917;28;20419;-84
2021/05/17 06:57:31;;;;;;;3.67;0.80;;;;;;;;;;5041868;28;20500;-84
2021/05/17 07:00:03;;;;;;;5.70;0.95;;;;;;;;;;5027449;28;20054;-84
2021/05/17 07:02:36;;;;;;;4.60;1.10;;;;;;;;;;5036356;28;20065;-86
2021/05/17 07:05:05;;;;;;;10.45;1.20;;;;;;;;;;5025801;28;20072;-85
2021/05/17 07:07:46;;;;;;;4.25;0.80;;;;;;;;;;5037339;28;20076;-85
2021/05/17 07:13:01;;;;;;;7.57;1.35;;;;;;;;;;5032524;28;20505;-86
2021/05/17 07:15:30;;;;;;;4.45;0.90;;;;;;;;;;5041839;28;20042;-86
2021/05/17 07:17:59;;;;;;;3.70;0.90;;;;;;;;;;5033050;28;20053;-85
2021/05/17 07:20:33;;;;;;;4.18;0.90;;;;;;;;;;5031864;28;20101;-84
2021/05/17 07:25:52;;;;;;;2.30;0.75;;;;;;;;;;5002925;28;20046;-85
2021/05/17 07:28:22;;;;;;;3.90;0.80;;;;;;;;;;5042164;28;20083;-85
2021/05/17 07:30:51;;;;;;;5.20;1.40;;;;;;;;;;5049741;28;20076;-85
2021/05/17 07:33:20;;;;;;;2.10;0.60;;;;;;;;;;5052579;28;20137;-84
2021/05/17 07:35:49;;;;;;;3.20;0.70;;;;;;;;;;5038316;28;20432;-86
2021/05/17 07:38:18;;;;;;;6.07;1.00;;;;;;;;;;5045175;28;20136;-85
2021/05/17 07:40:47;;;;;;;6.00;0.95;;;;;;;;;;5035644;28;20076;-85
2021/05/17 07:43:15;;;;;;;5.72;0.70;;;;;;;;;;5039414;28;20045;-85
2021/05/17 07:45:46;;;;;;;6.55;0.85;;;;;;;;;;5042619;28;20088;-84
2021/05/17 07:48:15;;;;;;;7.68;0.90;;;;;;;;;;5041877;28;20041;-86
2021/05/17 07:50:45;;;;;;;2.42;0.85;;;;;;;;;;5032155;28;20061;-84
2021/05/17 07:53:14;;;;;;;4.13;0.88;;;;;;;;;;5043109;28;21178;-87
2021/05/17 07:55:42;;;;;;;8.02;0.98;;;;;;;;;;5040642;28;20130;-84
2021/05/17 07:58:11;;;;;;;4.85;1.00;;;;;;;;;;5030104;28;20068;-85
2021/05/17 08:00:39;;;;;;;3.70;0.77;;;;;;;;;;5035098;28;20079;-85
2021/05/17 08:03:08;;;;;;;2.40;0.63;;;;;;;;;;5038674;28;20053;-84
2021/05/17 08:05:57;;;;;;;3.38;0.70;;;;;;;;;;5034473;28;20045;-86
2021/05/17 08:08:26;;;;;;;3.03;1.02;;;;;;;;;;5029665;28;20128;-85
2021/05/17 08:10:54;;;;;;;3.35;0.70;;;;;;;;;;5032270;28;20052;-84
2021/05/17 08:13:23;;;;;;;3.30;0.60;;;;;;;;;;5045983;28;20045;-84
2021/05/17 08:16:14;;;;;;;2.97;0.77;;;;;;;;;;5033452;28;20137;-85
2021/05/17 08:18:42;;;;;;;4.53;0.80;;;;;;;;;;5048730;28;20045;-85
2021/05/17 08:21:11;;;;;;;2.55;0.70;;;;;;;;;;5032917;28;20049;-84
2021/05/17 08:23:39;;;;;;;1.52;0.70;;;;;;;;;;5033132;28;20045;-85
2021/05/17 08:26:08;;;;;;;5.35;1.05;;;;;;;;;;5031044;28;20073;-85
2021/05/17 08:28:38;;;;;;;6.60;0.90;;;;;;;;;;5001939;28;20129;-86
2021/05/17 08:31:08;;;;;;;6.93;0.90;;;;;;;;;;5014048;28;20048;-85
2021/05/17 08:33:37;;;;;;;2.53;1.02;;;;;;;;;;5019283;28;20058;-85
2021/05/17 08:36:06;;;;;;;4.05;0.70;;;;;;;;;;5024550;28;20050;-86
2021/05/17 08:38:35;;;;;;;4.70;0.50;;;;;;;;;;5028431;28;20053;-85
2021/05/17 08:41:04;;;;;;;4.70;0.63;;;;;;;;;;5033789;28;20084;-85
2021/05/17 08:43:32;;;;;;;3.55;0.40;;;;;;;;;;5033532;28;20053;-85
2021/05/17 08:46:01;;;;;;;3.92;0.57;;;;;;;;;;5035040;28;20041;-84
2021/05/17 08:48:29;;;;;;;4.38;0.63;;;;;;;;;;5031578;28;20065;-85
2021/05/17 08:50:58;;;;;;;3.75;0.60;;;;;;;;;;5048194;28;20076;-85
2021/05/17 08:53:27;;;;;;;3.00;0.60;;;;;;;;;;5034312;28;20096;-84
2021/05/17 08:55:56;;;;;;;1.15;0.43;;;;;;;;;;5033575;28;20045;-85
2021/05/17 08:58:24;;;;;;;2.28;0.60;;;;;;;;;;5032766;28;20057;-85
2021/05/17 09:00:52;;;;;;;2.33;0.50;;;;;;;;;;5034668;28;20496;-84
2021/05/17 09:03:21;;;;;;;4.72;0.55;;;;;;;;;;5037937;28;20076;-85
2021/05/17 09:05:49;;;;;;;3.00;0.50;;;;;;;;;;5034823;28;20390;-85
2021/05/17 09:08:19;;;;;;;1.27;0.50;;;;;;;;;;5031229;28;20683;-85
2021/05/17 09:10:48;;;;;;;3.03;0.65;;;;;;;;;;5042379;28;20041;-86
2021/05/17 09:13:17;;;;;;;1.25;0.40;;;;;;;;;;5033631;28;20057;-85
2021/05/17 09:15:46;;;;;;;2.20;0.40;;;;;;;;;;5033206;28;20056;-83
2021/05/17 09:18:16;;;;;;;2.15;0.50;;;;;;;;;;5032742;28;20091;-85
2021/05/17 09:20:45;;;;;;;4.72;0.60;;;;;;;;;;5033839;28;20100;-86
2021/05/17 09:23:15;;;;;;;3.33;0.57;;;;;;;;;;5033188;28;20502;-84
2021/05/17 09:25:57;;;;;;;0.77;0.20;;;;;;;;;;5034517;28;20041;-85
2021/05/17 09:28:26;;;;;;;1.10;0.38;;;;;;;;;;5033019;28;20045;-85
2021/05/17 09:31:02;;;;;;;2.97;0.47;;;;;;;;;;5030558;28;20052;-84
2021/05/17 09:33:37;;;;;;;5.32;0.52;;;;;;;;;;5036295;28;20493;-86
2021/05/17 09:36:06;;;;;;;1.30;0.40;;;;;;;;;;5034763;28;20056;-85
2021/05/17 09:38:35;;;;;;;0.63;0.30;;;;;;;;;;5032799;28;20058;-84
2021/05/17 09:41:07;;;;;;;2.70;0.38;;;;;;;;;;5029377;28;20124;-85
2021/05/17 09:43:36;;;;;;;2.15;0.65;;;;;;;;;;5034095;28;21541;-84
2021/05/17 09:46:04;;;;;;;1.38;0.30;;;;;;;;;;5033210;28;20053;-86
2021/05/17 09:48:45;;;;;;;1.40;0.43;;;;;;;;;;5030641;28;20061;-87
2021/05/17 09:51:14;;;;;;;1.85;0.50;;;;;;;;;;5031678;28;20053;-86
2021/05/17 09:53:45;;;;;;;1.55;0.40;;;;;;;;;;5032627;28;20065;-85
2021/05/17 09:56:16;;;;;;;1.63;0.30;;;;;;;;;;5030625;28;20049;-85
2021/05/17 09:58:46;;;;;;;0.60;0.30;;;;;;;;;;5031704;28;20041;-85
2021/05/17 10:01:16;;;;;;;2.25;0.30;;;;;;;;;;5034197;28;20060;-85
2021/05/17 10:03:45;;;;;;;3.22;0.38;;;;;;;;;;5032308;28;20533;-86
2021/05/17 10:06:17;;;;;;;3.42;0.40;;;;;;;;;;5029894;28;20056;-86
2021/05/17 10:08:46;;;;;;;2.58;0.30;;;;;;;;;;5032836;28;20049;-85
2021/05/17 10:11:14;;;;;;;1.05;0.30;;;;;;;;;;5031008;28;20472;-88
2021/05/17 10:13:44;;;;;;;1.75;0.40;;;;;;;;;;5032540;28;20135;-86
2021/05/17 10:16:13;;;;;;;1.52;0.50;;;;;;;;;;5031799;28;20049;-85
2021/05/17 10:18:42;;;;;;;0.85;0.30;;;;;;;;;;5036219;28;20103;-86
2021/05/17 10:21:11;;;;;;;3.17;0.50;;;;;;;;;;5035874;28;20072;-86
2021/05/17 10:23:41;;;;;;;2.17;0.40;;;;;;;;;;5031129;28;20045;-85
2021/05/17 10:26:11;;;;;;;0.70;0.30;;;;;;;;;;5027017;28;20038;-87
2021/05/17 10:28:42;;;;;;;3.72;0.40;;;;;;;;;;5027015;28;20123;-86
2021/05/17 10:31:14;;;;;;;4.78;0.30;;;;;;;;;;5033068;28;20045;-88
2021/05/17 10:33:43;;;;;;;1.02;0.45;;;;;;;;;;5031719;28;20053;-86
2021/05/17 10:36:11;;;;;;;1.23;0.50;;;;;;;;;;5033922;28;20469;-85
2021/05/17 10:38:45;;;;;;;0.70;0.55;;;;;;;;;;5031040;28;20076;-86
2021/05/17 10:41:27;;;;;;;2.97;0.38;;;;;;;;;;5031963;28;20053;-87
2021/05/17 10:44:01;;;;;;;1.27;0.60;;;;;;;;;;5024696;28;20049;-87
2021/05/17 10:46:40;;;;;;;2.47;0.90;;;;;;;;;;5028456;28;20136;-87
2021/05/17 10:49:30;;;;;;;1.85;0.50;;;;;;;;;;5027446;28;20072;-86
2021/05/17 10:52:18;;;;;;;1.77;0.57;;;;;;;;;;5025508;28;20059;-86
2021/05/17 10:54:49;;;;;;;4.20;0.60;;;;;;;;;;5025718;28;20075;-87
2021/05/17 10:57:19;;;;;;;1.30;0.85;;;;;;;;;;5028021;28;20088;-85
2021/05/17 11:02:37;;;;;;;3.10;0.60;;;;;;;;;;5027749;28;20456;-87
2021/05/17 11:05:10;;;;;;;5.20;0.82;;;;;;;;;;5028011;28;20108;-88
2021/05/17 11:07:46;;;;;;;3.20;0.75;;;;;;;;;;5027862;28;20057;-88
2021/05/17 11:10:24;;;;;;;5.75;0.73;;;;;;;;;;5030724;28;20505;-88
2021/05/17 11:12:56;;;;;;;4.28;0.73;;;;;;;;;;5023279;28;20496;-88
2021/05/17 11:15:56;;;;;;;4.53;0.47;;;;;;;;;;5032629;28;20107;-85
2021/05/17 11:18:40;;;;;;;5.20;0.60;;;;;;;;;;5030783;28;20057;-87
2021/05/17 11:21:12;;;;;;;1.35;0.40;;;;;;;;;;5028774;28;20061;-88
2021/05/17 11:23:45;;;;;;;2.53;0.70;;;;;;;;;;5027092;28;20045;-86
2021/05/17 11:26:17;;;;;;;2.72;0.57;;;;;;;;;;5025456;28;20068;-86
2021/05/17 11:29:00;;;;;;;1.15;0.68;;;;;;;;;;5025267;28;20061;-85
2021/05/17 11:31:37;;;;;;;6.10;0.57;;;;;;;;;;5026721;28;20050;-86
2021/05/17 11:34:26;;;;;;;2.33;0.40;;;;;;;;;;5025383;28;20045;-87
2021/05/17 11:37:09;;;;;;;2.17;0.40;;;;;;;;;;5027480;28;20049;-85
2021/05/17 11:39:40;;;;;;;2.72;0.40;;;;;;;;;;5027273;28;20046;-86
2021/05/17 11:42:09;;;;;;;3.50;0.50;;;;;;;;;;5024946;28;20045;-86
2021/05/17 11:44:39;;;;;;;3.13;0.52;;;;;;;;;;5024198;28;20119;-88
2021/05/17 11:47:08;;;;;;;2.55;0.50;;;;;;;;;;5023092;28;22054;-88
2021/05/17 11:49:43;;;;;;;3.88;0.73;;;;;;;;;;5024910;28;20041;-89
2021/05/17 11:52:14;;;;;;;1.05;0.40;;;;;;;;;;5023954;28;20038;-86
2021/05/17 11:54:49;;;;;;;1.30;0.30;;;;;;;;;;5026596;28;20136;-87
2021/05/17 11:57:18;;;;;;;1.67;0.45;;;;;;;;;;5024331;28;20499;-85
2021/05/17 11:59:49;;;;;;;6.82;0.30;;;;;;;;;;5025070;28;20525;-85
2021/05/17 12:02:17;;;;;;;9.68;0.70;;;;;;;;;;5020291;28;20050;-85
2021/05/17 12:04:46;;;;;;;6.05;1.27;;;;;;;;;;5007363;28;20057;-86
2021/05/17 12:07:16;;;;;;;1.98;0.40;;;;;;;;;;5009243;28;20056;-85
2021/05/17 12:09:46;;;;;;;2.25;0.38;;;;;;;;;;5008200;28;20513;-85
2021/05/17 12:12:14;;;;;;;5.60;0.90;;;;;;;;;;5003102;28;20935;-86
2021/05/17 12:14:44;;;;;;;0.93;0.30;;;;;;;;;;5007950;28;20084;-85
2021/05/17 12:17:14;;;;;;;0.93;0.40;;;;;;;;;;5006181;28;20054;-88
2021/05/17 12:19:46;;;;;;;0.90;0.43;;;;;;;;;;5020799;28;20345;-86
2021/05/17 12:22:17;;;;;;;0.40;0.22;;;;;;;;;;5015905;28;20054;-87
2021/05/17 12:24:47;;;;;;;1.15;0.32;;;;;;;;;;5007166;28;20156;-87
2021/05/17 12:27:18;;;;;;;2.80;0.30;;;;;;;;;;5013151;28;20516;-86
2021/05/17 12:29:51;;;;;;;3.92;0.70;;;;;;;;;;5015802;28;20068;-86
2021/05/17 12:32:22;;;;;;;5.82;0.40;;;;;;;;;;5017102;28;20042;-86
2021/05/17 12:34:54;;;;;;;2.28;0.47;;;;;;;;;;5020213;28;20046;-86
2021/05/17 12:37:31;;;;;;;0.77;0.23;;;;;;;;;;3720245;28;10023457;-87
2021/05/17 12:40:14;;;;;;;2.20;0.43;;;;;;;;;;2065182;28;10002130;-86
2021/05/17 12:42:43;;;;;;;5.93;0.63;;;;;;;;;;4992312;28;20051;-88
2021/05/17 12:45:13;;;;;;;1.65;0.35;;;;;;;;;;4993427;28;20053;-87
2021/05/17 12:47:42;;;;;;;1.33;0.47;;;;;;;;;;4997245;28;20052;-85
2021/05/17 12:50:20;;;;;;;1.90;0.22;;;;;;;;;;4991020;28;20042;-85
2021/05/17 12:52:49;;;;;;;1.92;0.65;;;;;;;;;;4990041;28;20065;-86
2021/05/17 12:55:21;;;;;;;2.38;0.50;;;;;;;;;;4993115;28;20042;-87
2021/05/17 12:57:52;;;;;;;2.15;0.40;;;;;;;;;;5003213;28;20414;-85
2021/05/17 13:00:50;;;;;;;4.63;0.50;;;;;;;;;;4992971;28;20046;-87
2021/05/17 13:03:19;;;;;;;2.95;0.35;;;;;;;;;;4919983;29;20063;-87
2021/05/17 13:06:02;;;;;;;3.10;0.57;;;;;;;;;;4991932;28;20050;-86
2021/05/17 13:08:48;;;;;;;3.83;0.40;;;;;;;;;;5017345;28;20581;-85
2021/05/17 13:11:21;;;;;;;1.20;0.30;;;;;;;;;;5011209;28;20218;-84
2021/05/17 13:13:51;;;;;;;6.63;1.40;;;;;;;;;;5010725;28;20050;-84
2021/05/17 13:16:20;;;;;;;4.30;0.75;;;;;;;;;;5009284;28;20068;-85
2021/05/17 13:18:52;;;;;;;3.50;0.60;;;;;;;;;;5024527;28;20104;-86
2021/05/17 13:21:25;;;;;;;2.70;0.57;;;;;;;;;;5025773;28;20053;-84
2021/05/17 13:30:07;;;;;;;1.52;0.50;;;;;;;;;;4988386;28;20171;-86
2021/05/17 13:32:36;;;;;;;13.38;0.70;;;;;;;;;;4996064;28;20050;-86
2021/05/17 13:35:05;;;;;;;11.90;0.75;;;;;;;;;;5008115;28;20054;-84
2021/05/17 13:37:33;;;;;;;3.55;0.40;;;;;;;;;;4993702;28;20061;-84
2021/05/17 13:40:01;;;;;;;0.80;0.25;;;;;;;;;;5008735;28;20147;-86
2021/05/17 13:42:31;;;;;;;3.78;0.40;;;;;;;;;;4999180;28;20042;-86
2021/05/17 13:45:00;;;;;;;3.40;0.40;;;;;;;;;;5000136;28;20141;-85
2021/05/17 13:47:28;;;;;;;4.50;0.50;;;;;;;;;;4999426;28;20146;-88
2021/05/17 13:49:57;;;;;;;2.72;0.40;;;;;;;;;;4998045;28;20081;-85
2021/05/17 13:52:25;;;;;;;1.10;0.30;;;;;;;;;;5010801;28;20129;-85
2021/05/17 13:54:53;;;;;;;0.20;0.13;;;;;;;;;;4994049;28;20046;-86
2021/05/17 13:57:22;;;;;;;1.20;0.20;;;;;;;;;;4995348;28;20067;-86
2021/05/17 13:59:57;;;;;;;1.17;0.22;;;;;;;;;;4996065;28;20054;-84
2021/05/17 14:02:25;;;;;;;1.17;0.30;;;;;;;;;;4982346;28;20063;-85
2021/05/17 14:04:54;;;;;;;0.63;0.20;;;;;;;;;;5002986;28;20069;-85
2021/05/17 14:07:22;;;;;;;0.93;0.20;;;;;;;;;;5018189;28;20133;-86
2021/05/17 14:09:51;;;;;;;1.60;0.40;;;;;;;;;;5002048;28;20619;-86
2021/05/17 14:12:19;;;;;;;0.35;0.15;;;;;;;;;;5010930;28;20076;-86
2021/05/17 14:14:47;;;;;;;0.43;0.20;;;;;;;;;;5013206;28;20112;-86
2021/05/17 14:17:16;;;;;;;0.57;0.10;;;;;;;;;;5023739;28;20045;-85
2021/05/17 14:19:45;;;;;;;5.63;1.20;;;;;;;;;;5033229;28;20057;-84
2021/05/17 14:22:13;;;;;;;1.92;0.50;;;;;;;;;;5030601;28;20046;-84
2021/05/17 14:24:42;;;;;;;0.55;0.30;;;;;;;;;;5032581;28;20057;-85
2021/05/17 14:27:10;;;;;;;3.40;0.60;;;;;;;;;;5003878;28;20589;-88
2021/05/17 14:29:38;;;;;;;0.68;0.30;;;;;;;;;;4993246;28;20062;-85
2021/05/17 14:32:07;;;;;;;0.63;0.30;;;;;;;;;;5009597;28;20080;-85
2021/05/17 14:34:36;;;;;;;3.38;0.32;;;;;;;;;;5009990;28;20583;-86
2021/05/17 14:37:07;;;;;;;1.58;0.40;;;;;;;;;;5001110;28;20077;-86
2021/05/17 14:39:55;;;;;;;1.60;0.20;;;;;;;;;;5020466;28;20160;-86
2021/05/17 14:42:23;;;;;;;1.23;0.40;;;;;;;;;;5014713;28;20172;-86
2021/05/17 14:44:51;;;;;;;0.80;0.40;;;;;;;;;;5024598;28;20046;-84
2021/05/17 14:47:20;;;;;;;0.52;0.30;;;;;;;;;;5002681;28;20046;-84
2021/05/17 14:49:50;;;;;;;1.63;0.50;;;;;;;;;;5003801;28;20133;-84
2021/05/17 14:52:18;;;;;;;0.98;0.40;;;;;;;;;;4993679;28;20326;-86
2021/05/17 14:54:48;;;;;;;3.40;0.45;;;;;;;;;;4993113;28;20046;-84
2021/05/17 14:57:16;;;;;;;0.65;0.40;;;;;;;;;;4989938;28;20061;-87
2021/05/17 14:59:45;;;;;;;0.47;0.28;;;;;;;;;;4986949;28;20553;-85
2021/05/17 15:02:14;;;;;;;1.25;0.30;;;;;;;;;;4985901;28;20066;-86
2021/05/17 15:04:42;;;;;;;1.23;0.25;;;;;;;;;;5015073;28;20406;-86
2021/05/17 15:07:11;;;;;;;0.65;0.40;;;;;;;;;;5027772;28;20045;-86
2021/05/17 15:09:40;;;;;;;1.52;0.43;;;;;;;;;;5031742;28;20129;-86
2021/05/17 15:12:08;;;;;;;1.30;0.45;;;;;;;;;;5035086;28;20046;-87
2021/05/17 15:14:37;;;;;;;3.35;0.57;;;;;;;;;;5038117;28;20060;-88
2021/05/17 15:17:05;;;;;;;1.08;0.40;;;;;;;;;;5029669;28;20045;-84
2021/05/17 15:19:33;;;;;;;1.30;0.40;;;;;;;;;;5031500;28;20057;-85
2021/05/17 15:22:02;;;;;;;0.30;0.20;;;;;;;;;;5037566;28;20071;-85